Terminal Aerodrome Forecast
Issued by NWS

Home | Current Version | Previous Version | Graphics & Text | Print | Product List | Glossary On
Versions: 1 2 3 4 5 6 7 8 9 10 11 12 13 14 15 16 17
000
FTUS43 KIWX 251121
TAFSBN
TAF
KSBN 251121Z 2512/2612 20007KT P6SM SCT250
     FM252300 18009KT P6SM VCTS BKN050CB
     FM260600 18007KT 5SM TSRA BKN050CB=

USA.gov is the U.S. government's official web portal to all federal, state and local government web resources and services.